KGRF/GRF METAR and TAF weather

Enter ICAO airport designator
Station Type Date Time Source
KGRF METAR 2022/01/26 19:58 UTC NOAA

KGRF 261958Z 34004KT 10SM OVC006 02/00 A3029 RMK AO2A SLP264 T00240003 $


Station Type Date Time Source
KGRF Decoded METAR 2022/01/26 19:58 UTC NOAA

Fort Lewis / Gray U. S. Army Airfield, WA, United States (KGRF) 47-07N 122-33W 87M
Jan 26, 2022 - 02:58 PM EST / 2022.01.26 1958 UTC
Wind: from the NNW (340 degrees) at 5 MPH (4 KT):0
Visibility: 10 mile(s):0
Sky conditions: overcast
Temperature: 36.3 F (2.4 C)
Dew Point: 32.5 F (0.3 C)
Relative Humidity: 85%
Pressure (altimeter): 30.29 in. Hg (1025 hPa)
ob: KGRF 261958Z 34004KT 10SM OVC006 02/00 A3029 RMK AO2A SLP264 T00240003
cycle: 20

Station Type Date Time Source
KGRF TAF 2022/01/26 13:58 UTC NOAA

TAF KGRF 261300Z 2613/2719 04006KT 8000 BR OVC003 QNH3023INS
BECMG 2620/2621 04006KT 9000 BR SCT006 QNH3026INS
BECMG 2622/2623 04006KT 9999 NSW FEW005 QNH3026INS
BECMG 2703/2704 04006KT 6000 BR BKN005 QNH3028INS TX07/2623Z TNM01/2710Z

Example: see airport list